createdAt,value
2022-07-25T00:01:20.694Z,95186.06
2022-07-25T00:03:48.736Z,95183.66
2022-07-25T00:06:17.768Z,95180.75
2022-07-25T00:08:46.054Z,95178.97
2022-07-25T00:11:15.248Z,95170.06
2022-07-25T00:13:43.061Z,95174.00
2022-07-25T00:16:11.271Z,95174.06
2022-07-25T00:18:39.211Z,95168.09
2022-07-25T00:21:07.373Z,95163.09
2022-07-25T00:23:35.266Z,95157.59
2022-07-25T00:26:03.064Z,95160.75
2022-07-25T00:28:32.245Z,95156.81
2022-07-25T00:31:00.167Z,95152.13
2022-07-25T00:33:28.183Z,95156.56
2022-07-25T00:35:56.051Z,95154.22
2022-07-25T00:38:23.958Z,95154.22
2022-07-25T00:40:54.344Z,95152.88
2022-07-25T00:43:23.752Z,95151.63
2022-07-25T00:45:52.994Z,95147.78
2022-07-25T00:48:21.143Z,95138.66
2022-07-25T00:50:49.219Z,95142.81
2022-07-25T00:53:17.314Z,95144.44
2022-07-25T00:55:45.212Z,95138.69
2022-07-25T00:58:13.768Z,95138.41
2022-07-25T01:00:41.741Z,95132.38
2022-07-25T01:03:11.100Z,95131.88
2022-07-25T01:05:39.166Z,95131.59
2022-07-25T01:08:07.400Z,95136.59
2022-07-25T01:10:36.133Z,95135.31
2022-07-25T01:13:04.082Z,95133.06
2022-07-25T01:15:32.219Z,95127.63
2022-07-25T01:18:00.149Z,95130.50
2022-07-25T01:20:31.902Z,95129.47
2022-07-25T01:23:01.279Z,95128.44
2022-07-25T01:25:29.624Z,95128.94
2022-07-25T01:27:57.851Z,95122.66
2022-07-25T01:30:26.360Z,95123.19
2022-07-25T01:32:54.491Z,95111.72
2022-07-25T01:35:22.338Z,95110.69
2022-07-25T01:37:51.534Z,95111.19
2022-07-25T01:40:19.396Z,95110.69
2022-07-25T01:42:47.475Z,95104.69
2022-07-25T01:45:15.615Z,95102.09
2022-07-25T01:47:43.478Z,95098.94
2022-07-25T01:50:11.718Z,95101.84
2022-07-25T01:52:40.412Z,95103.91
2022-07-25T01:55:10.628Z,95108.06
2022-07-25T01:57:39.286Z,95101.31
2022-07-25T02:00:11.854Z,95094.53
2022-07-25T02:02:39.682Z,95100.25
2022-07-25T02:05:08.321Z,95092.63
2022-07-25T02:07:36.242Z,95089.16
2022-07-25T02:10:05.832Z,95076.88
2022-07-25T02:12:35.202Z,95083.91
2022-07-25T02:15:03.123Z,95075.91
2022-07-25T02:17:31.151Z,95071.75
2022-07-25T02:19:59.067Z,95082.19
2022-07-25T02:22:26.856Z,95073.59
2022-07-25T02:24:54.674Z,95069.19
2022-07-25T02:27:22.539Z,95070.97
2022-07-25T02:29:51.791Z,95067.84
2022-07-25T02:32:19.781Z,95069.13
2022-07-25T02:34:47.631Z,95064.44
2022-07-25T02:37:16.536Z,95073.03
2022-07-25T02:39:44.362Z,95064.69
2022-07-25T02:42:12.237Z,95065.47
2022-07-25T02:44:40.066Z,95068.09
2022-07-25T02:47:09.279Z,95066.53
2022-07-25T02:49:37.180Z,95077.75
2022-07-25T02:52:05.528Z,95077.47
2022-07-25T02:54:33.412Z,95071.97
2022-07-25T02:57:01.226Z,95070.88
2022-07-25T02:59:32.422Z,95074.81
2022-07-25T03:02:00.759Z,95067.19
2022-07-25T03:04:31.115Z,95069.63
2022-07-25T03:06:59.020Z,95065.59
2022-07-25T03:09:26.804Z,95065.38
2022-07-25T03:11:54.664Z,95062.00
2022-07-25T03:14:22.539Z,95066.66
2022-07-25T03:16:51.551Z,95068.22
2022-07-25T03:19:19.455Z,95077.63
2022-07-25T03:21:48.637Z,95067.97
2022-07-25T03:24:16.538Z,95074.19
2022-07-25T03:26:45.488Z,95062.72
2022-07-25T03:29:13.375Z,95070.25
2022-07-25T03:31:41.307Z,95067.44
2022-07-25T03:34:09.521Z,95065.31
2022-07-25T03:36:37.627Z,95067.16
2022-07-25T03:39:06.838Z,95069.41
2022-07-25T03:41:34.818Z,95062.72
2022-07-25T03:44:02.971Z,95059.84
2022-07-25T03:46:31.135Z,95056.47
2022-07-25T03:48:59.090Z,95060.16
2022-07-25T03:51:27.111Z,95063.59
2022-07-25T03:54:04.495Z,95058.91
2022-07-25T03:56:41.538Z,95060.22
2022-07-25T03:59:13.702Z,95060.69
2022-07-25T04:01:42.213Z,95065.34
2022-07-25T04:04:10.906Z,95072.63
2022-07-25T04:06:39.553Z,95059.09
2022-07-25T04:09:08.733Z,95059.09
2022-07-25T04:11:38.414Z,95062.28
2022-07-25T04:14:07.100Z,95061.97
2022-07-25T04:16:35.977Z,95056.22
2022-07-25T04:19:06.232Z,95047.63
2022-07-25T04:21:34.538Z,95051.03
2022-07-25T04:24:02.632Z,95048.94
2022-07-25T04:26:30.654Z,95045.56
2022-07-25T04:29:03.298Z,95043.47
2022-07-25T04:31:31.587Z,95048.13
2022-07-25T04:33:59.911Z,95043.81
2022-07-25T04:36:27.821Z,95055.50
2022-07-25T04:38:55.653Z,95045.88
2022-07-25T04:41:23.516Z,95048.28
2022-07-25T04:43:51.380Z,95052.19
2022-07-25T04:46:21.501Z,95043.59
2022-07-25T04:48:49.971Z,95041.28
2022-07-25T04:51:18.024Z,95042.34
2022-07-25T04:53:45.991Z,95043.13
2022-07-25T04:56:14.109Z,95046.28
2022-07-25T04:58:41.964Z,95037.44
2022-07-25T05:01:09.935Z,95042.13
2022-07-25T05:03:39.285Z,95044.97
2022-07-25T05:06:07.789Z,95040.28
2022-07-25T05:08:35.602Z,95033.75
2022-07-25T05:11:03.416Z,95041.84
2022-07-25T05:13:31.293Z,95036.06
2022-07-25T05:15:59.202Z,95041.25
2022-07-25T05:18:27.076Z,95038.69
2022-07-25T05:20:56.490Z,95038.38
2022-07-25T05:23:24.285Z,95021.69
2022-07-25T05:25:52.140Z,95040.97
2022-07-25T05:28:19.918Z,95034.72
2022-07-25T05:30:47.715Z,95036.78
2022-07-25T05:33:15.610Z,95033.59
2022-07-25T05:35:43.603Z,95030.63
2022-07-25T05:38:12.805Z,95032.69
2022-07-25T05:40:40.692Z,95032.66
2022-07-25T05:43:08.926Z,95038.88
2022-07-25T05:45:36.751Z,95039.63
2022-07-25T05:48:04.751Z,95018.22
2022-07-25T05:50:32.625Z,95031.69
2022-07-25T05:53:00.467Z,95032.16
2022-07-25T05:55:29.787Z,95035.03
2022-07-25T05:57:58.731Z,95028.09
2022-07-25T06:00:26.969Z,95033.28
2022-07-25T06:02:54.947Z,95033.41
2022-07-25T06:05:23.115Z,95028.09
2022-07-25T06:07:50.952Z,95030.59
2022-07-25T06:10:19.008Z,95026.06
2022-07-25T06:12:48.240Z,95028.53
2022-07-25T06:15:23.074Z,95021.31
2022-07-25T06:17:55.137Z,95025.31
2022-07-25T06:20:23.127Z,95028.66
2022-07-25T06:22:51.206Z,95016.75
2022-07-25T06:25:19.025Z,95029.94
2022-07-25T06:27:50.486Z,94999.97
2022-07-25T06:30:20.618Z,95038.94
2022-07-25T06:32:48.904Z,95030.50
2022-07-25T06:35:17.387Z,95028.88
2022-07-25T06:37:45.230Z,95025.00
2022-07-25T06:40:13.742Z,95029.53
2022-07-25T06:42:42.969Z,95021.81
2022-07-25T06:45:12.505Z,95020.97
2022-07-25T06:47:43.582Z,95026.25
2022-07-25T06:50:15.580Z,95025.59
2022-07-25T06:52:43.715Z,95018.53
2022-07-25T06:55:12.982Z,95020.44
2022-07-25T06:57:42.419Z,95011.91
2022-07-25T07:00:12.973Z,95009.19
2022-07-25T07:02:52.172Z,95007.41
2022-07-25T07:05:20.421Z,95005.56
2022-07-25T07:07:48.448Z,95003.59
2022-07-25T07:10:16.919Z,95005.34
2022-07-25T07:12:45.317Z,95000.78
2022-07-25T07:15:13.682Z,94999.59
2022-07-25T07:17:41.841Z,95006.28
2022-07-25T07:20:11.960Z,94996.72
2022-07-25T07:22:46.423Z,94998.72
2022-07-25T07:25:15.822Z,95001.81
2022-07-25T07:27:44.445Z,95001.72
2022-07-25T07:30:14.791Z,94999.81
2022-07-25T07:32:42.825Z,94999.34
2022-07-25T07:35:13.062Z,94995.25
2022-07-25T07:37:43.575Z,94997.63
2022-07-25T07:40:17.694Z,94996.13
2022-07-25T07:42:48.424Z,94993.28
2022-07-25T07:45:17.868Z,94995.72
2022-07-25T07:47:47.994Z,94995.28
2022-07-25T07:50:19.397Z,94995.50
2022-07-25T07:52:47.779Z,95006.88
2022-07-25T07:55:33.870Z,94997.53
2022-07-25T07:58:02.508Z,95000.66
2022-07-25T08:00:31.972Z,94994.38
2022-07-25T08:03:00.563Z,94998.28
2022-07-25T08:05:32.364Z,94994.38
2022-07-25T08:08:01.426Z,94990.38
2022-07-25T08:10:31.212Z,94992.09
2022-07-25T08:13:00.080Z,94988.69
2022-07-25T08:15:28.251Z,94991.47
2022-07-25T08:17:56.509Z,94987.78
2022-07-25T08:20:39.677Z,94984.84
2022-07-25T08:23:11.084Z,94984.53
2022-07-25T08:25:39.276Z,94980.16
2022-07-25T08:28:07.430Z,94976.22
2022-07-25T08:30:37.772Z,94979.63
2022-07-25T08:33:09.706Z,94971.38
2022-07-25T08:35:38.575Z,94975.72
2022-07-25T08:38:06.808Z,94976.81
2022-07-25T08:40:36.190Z,94979.41
2022-07-25T08:43:05.646Z,94971.25
2022-07-25T08:45:34.069Z,94973.56
2022-07-25T08:48:01.940Z,94955.25
2022-07-25T08:50:31.017Z,94971.47
2022-07-25T08:53:31.022Z,94967.44
2022-07-25T08:55:48.306Z,94964.28
2022-07-25T08:58:17.432Z,94959.47
2022-07-25T09:00:45.733Z,94962.16
2022-07-25T09:03:13.867Z,94968.09
2022-07-25T09:05:42.429Z,94967.09
2022-07-25T09:08:12.064Z,94961.53
2022-07-25T09:10:42.364Z,94956.69
2022-07-25T09:13:14.909Z,94965.13
2022-07-25T09:15:46.400Z,94962.88
2022-07-25T09:18:17.117Z,94969.75
2022-07-25T09:20:48.162Z,94955.72
2022-07-25T09:23:28.148Z,94950.66
2022-07-25T09:26:04.532Z,94945.06
2022-07-25T09:28:33.971Z,94954.44
2022-07-25T09:31:03.095Z,94955.44
2022-07-25T09:33:31.312Z,94958.34
2022-07-25T09:35:59.389Z,94942.28
2022-07-25T09:38:27.975Z,94951.72
2022-07-25T09:40:58.173Z,94951.28
2022-07-25T09:43:37.989Z,94944.63
2022-07-25T09:46:06.886Z,94959.97
2022-07-25T09:48:35.394Z,94942.94
2022-07-25T09:51:03.509Z,94944.31
2022-07-25T09:53:31.495Z,94942.53
2022-07-25T09:55:59.461Z,94933.91
2022-07-25T09:58:28.051Z,94939.19
2022-07-25T10:01:01.929Z,94932.91
2022-07-25T10:03:43.421Z,94945.38
2022-07-25T10:06:20.680Z,94934.75
2022-07-25T10:08:50.047Z,94926.25
2022-07-25T10:11:22.793Z,94927.88
2022-07-25T10:13:51.015Z,94927.22
2022-07-25T10:16:21.477Z,94926.88
2022-07-25T10:18:51.447Z,94927.91
2022-07-25T10:21:26.936Z,94922.28
2022-07-25T10:24:00.772Z,94928.81
2022-07-25T10:26:28.715Z,94947.06
2022-07-25T10:28:57.126Z,94918.03
2022-07-25T10:31:34.871Z,94919.94
2022-07-25T10:34:06.357Z,94922.59
2022-07-25T10:36:46.159Z,94911.16
2022-07-25T10:39:15.897Z,94914.44
2022-07-25T10:41:46.352Z,94928.31
2022-07-25T10:44:16.225Z,94898.50
2022-07-25T10:46:46.145Z,94905.22
2022-07-25T10:49:21.807Z,94900.09
2022-07-25T10:51:57.616Z,94891.16
2022-07-25T10:54:26.146Z,94890.38
2022-07-25T10:56:58.676Z,94902.91
2022-07-25T10:59:31.574Z,94900.22
2022-07-25T11:02:01.600Z,94899.53
2022-07-25T11:04:30.136Z,94908.34
2022-07-25T11:06:58.462Z,94894.16
2022-07-25T11:09:28.476Z,94879.66
2022-07-25T11:11:58.638Z,94896.28
2022-07-25T11:14:31.221Z,94898.09
2022-07-25T11:17:13.199Z,94885.00
2022-07-25T11:19:41.972Z,94881.81
2022-07-25T11:22:10.794Z,94891.00
2022-07-25T11:24:40.706Z,94879.56
2022-07-25T11:27:12.754Z,94902.53
2022-07-25T11:29:41.734Z,94877.44
2022-07-25T11:32:12.718Z,94867.72
2022-07-25T11:34:43.756Z,94873.84
2022-07-25T11:37:14.416Z,94883.03
2022-07-25T11:39:44.657Z,94874.91
2022-07-25T11:42:16.316Z,94876.69
2022-07-25T11:44:48.029Z,94872.78
2022-07-25T11:47:28.586Z,94861.50
2022-07-25T11:49:58.355Z,94871.88
2022-07-25T11:52:29.738Z,94862.63
2022-07-25T11:54:59.116Z,94874.22
2022-07-25T11:57:28.995Z,94854.31
2022-07-25T11:59:57.460Z,94878.31
2022-07-25T12:02:30.894Z,94863.28
2022-07-25T12:05:01.412Z,94852.53
2022-07-25T12:07:47.820Z,94849.38
2022-07-25T12:10:17.558Z,94852.59
2022-07-25T12:12:48.599Z,94845.88
2022-07-25T12:15:19.029Z,94851.41
2022-07-25T12:17:48.458Z,94839.84
2022-07-25T12:20:17.490Z,94854.69
2022-07-25T12:22:46.163Z,94834.47
2022-07-25T12:25:14.136Z,94833.75
2022-07-25T12:27:42.929Z,94826.66
2022-07-25T12:30:12.427Z,94839.09
2022-07-25T12:32:40.329Z,94840.56
2022-07-25T12:35:11.559Z,94820.97
2022-07-25T12:37:41.313Z,94823.59
2022-07-25T12:40:10.341Z,94817.72
2022-07-25T12:42:38.159Z,94837.22
2022-07-25T12:45:07.716Z,94831.16
2022-07-25T12:47:36.038Z,94825.44
2022-07-25T12:50:05.239Z,94819.59
2022-07-25T12:52:34.805Z,94814.75
2022-07-25T12:55:03.097Z,94806.63
2022-07-25T12:57:30.942Z,94802.34
2022-07-25T12:59:58.902Z,94816.34
2022-07-25T13:02:26.864Z,94807.56
2022-07-25T13:04:54.727Z,94811.50
2022-07-25T13:07:22.667Z,94816.34
2022-07-25T13:09:51.965Z,94826.06
2022-07-25T13:12:19.752Z,94814.13
2022-07-25T13:14:47.869Z,94838.69
2022-07-25T13:17:15.745Z,94814.97
2022-07-25T13:19:43.585Z,94796.50
2022-07-25T13:22:11.519Z,94795.03
2022-07-25T13:24:40.352Z,94813.81
2022-07-25T13:27:09.743Z,94812.41
2022-07-25T13:29:37.660Z,94800.25
2022-07-25T13:32:06.512Z,94800.25
2022-07-25T13:34:34.417Z,94790.22
2022-07-25T13:37:02.318Z,94785.91
2022-07-25T13:39:30.129Z,94793.09
2022-07-25T13:41:58.005Z,94796.81
2022-07-25T13:44:27.213Z,94773.72
2022-07-25T13:46:55.093Z,94789.91
2022-07-25T13:49:22.987Z,94776.41
2022-07-25T13:51:50.953Z,94775.75
2022-07-25T13:54:18.845Z,94783.81
2022-07-25T13:56:47.447Z,94763.88
2022-07-25T13:59:20.943Z,94783.31
2022-07-25T14:01:50.897Z,94762.94
2022-07-25T14:04:19.627Z,94765.66
2022-07-25T14:06:51.754Z,94761.06
2022-07-25T14:09:20.699Z,94748.56
2022-07-25T14:11:49.216Z,94751.16
2022-07-25T14:14:17.129Z,94761.38
2022-07-25T14:16:45.371Z,94754.06
2022-07-25T14:19:14.611Z,94744.34
2022-07-25T14:21:42.557Z,94736.69
2022-07-25T14:24:10.421Z,94738.84
2022-07-25T14:26:38.286Z,94738.00
2022-07-25T14:29:11.098Z,94734.34
2022-07-25T14:31:40.580Z,94736.19
2022-07-25T14:34:08.777Z,94741.94
2022-07-25T14:36:37.988Z,94733.16
2022-07-25T14:39:06.638Z,94748.81
2022-07-25T14:41:35.249Z,94731.22
2022-07-25T14:44:03.067Z,94728.56
2022-07-25T14:46:31.098Z,94716.38
2022-07-25T14:48:59.464Z,94714.16
2022-07-25T14:51:28.517Z,94715.25
2022-07-25T14:53:57.751Z,94720.13
2022-07-25T14:56:25.940Z,94724.69
2022-07-25T14:58:53.776Z,94706.81
2022-07-25T15:01:24.391Z,94711.16
2022-07-25T15:03:52.576Z,94695.41
2022-07-25T15:06:21.248Z,94700.44
2022-07-25T15:08:51.859Z,94704.16
2022-07-25T15:11:21.737Z,94701.50
2022-07-25T15:13:50.283Z,94701.47
2022-07-25T15:16:18.410Z,94694.06
2022-07-25T15:19:13.498Z,94689.81
2022-07-25T15:21:34.614Z,94681.97
2022-07-25T15:24:02.688Z,94680.81
2022-07-25T15:26:32.370Z,94677.03
2022-07-25T15:29:00.287Z,94677.56
2022-07-25T15:31:28.611Z,94672.88
2022-07-25T15:33:56.506Z,94666.06
2022-07-25T15:36:29.124Z,94659.22
2022-07-25T15:38:57.516Z,94666.69
2022-07-25T15:41:26.532Z,94663.69
2022-07-25T15:43:55.717Z,94668.78
2022-07-25T15:46:23.666Z,94665.31
2022-07-25T15:48:51.627Z,94650.47
2022-07-25T15:51:20.035Z,94644.31
2022-07-25T15:53:47.866Z,94651.19
2022-07-25T15:56:16.095Z,94635.56
2022-07-25T15:58:44.409Z,94639.56
2022-07-25T16:01:13.674Z,94640.38
2022-07-25T16:03:41.634Z,94647.16
2022-07-25T16:06:10.037Z,94628.53
2022-07-25T16:08:38.329Z,94639.16
2022-07-25T16:11:06.473Z,94637.19
2022-07-25T16:13:34.393Z,94633.75
2022-07-25T16:16:02.277Z,94642.75
2022-07-25T16:18:32.310Z,94636.75
2022-07-25T16:21:00.133Z,94628.34
2022-07-25T16:23:28.207Z,94625.28
2022-07-25T16:25:56.052Z,94626.88
2022-07-25T16:28:23.901Z,94621.22
2022-07-25T16:30:52.141Z,94619.72
2022-07-25T16:33:20.124Z,94605.47
2022-07-25T16:35:49.711Z,94620.44
2022-07-25T16:38:18.050Z,94611.09
2022-07-25T16:40:45.943Z,94614.00
2022-07-25T16:43:13.851Z,94600.06
2022-07-25T16:45:43.082Z,94614.25
2022-07-25T16:48:11.023Z,94619.00
2022-07-25T16:50:38.856Z,94611.25
2022-07-25T16:53:08.281Z,94607.06
2022-07-25T16:55:36.171Z,94620.28
2022-07-25T16:58:04.063Z,94600.22
2022-07-25T17:00:32.738Z,94618.72
2022-07-25T17:03:02.092Z,94609.91
2022-07-25T17:05:30.016Z,94612.63
2022-07-25T17:07:59.621Z,94610.75
2022-07-25T17:10:31.491Z,94612.22
2022-07-25T17:13:00.368Z,94616.78
2022-07-25T17:15:28.362Z,94609.72
2022-07-25T17:17:56.297Z,94612.06
2022-07-25T17:20:24.467Z,94624.91
2022-07-25T17:22:52.324Z,94642.09
2022-07-25T17:25:20.253Z,94629.13
2022-07-25T17:27:49.448Z,94633.50
2022-07-25T17:30:17.314Z,94627.34
2022-07-25T17:32:45.332Z,94614.34
2022-07-25T17:35:13.393Z,94624.41
2022-07-25T17:37:41.513Z,94622.50
2022-07-25T17:40:10.796Z,94615.78
2022-07-25T17:42:44.602Z,94618.59
2022-07-25T17:45:15.337Z,94623.78
2022-07-25T17:47:44.087Z,94628.28
2022-07-25T17:50:12.531Z,94626.13
2022-07-25T17:52:40.587Z,94621.22
2022-07-25T17:55:09.030Z,94612.66
2022-07-25T17:57:37.641Z,94610.47
2022-07-25T18:00:06.701Z,94611.13
2022-07-25T18:02:41.016Z,94618.56
2022-07-25T18:05:09.585Z,94608.06
2022-07-25T18:07:40.668Z,94612.31
2022-07-25T18:10:09.013Z,94615.03
2022-07-25T18:12:39.359Z,94622.22
2022-07-25T18:15:08.537Z,94626.66
2022-07-25T18:17:36.526Z,94635.53
2022-07-25T18:20:06.372Z,94654.84
2022-07-25T18:22:34.672Z,94667.84
2022-07-25T18:25:02.670Z,94672.84
2022-07-25T18:27:30.618Z,94680.19
2022-07-25T18:29:58.588Z,94689.69
2022-07-25T18:32:26.470Z,94693.03
2022-07-25T18:34:54.365Z,94687.19
2022-07-25T18:37:23.614Z,94687.16
2022-07-25T18:39:51.524Z,94699.25
2022-07-25T18:42:19.480Z,94708.75
2022-07-25T18:44:47.469Z,94703.97
2022-07-25T18:47:15.531Z,94702.03
2022-07-25T18:49:43.395Z,94709.78
2022-07-25T18:52:11.299Z,94705.16
2022-07-25T18:54:40.610Z,94706.44
2022-07-25T18:57:08.608Z,94704.47
2022-07-25T18:59:37.047Z,94712.00
2022-07-25T19:02:05.344Z,94708.47
2022-07-25T19:04:33.331Z,94713.41
2022-07-25T19:07:01.327Z,94718.34
2022-07-25T19:09:29.232Z,94721.41
2022-07-25T19:11:58.476Z,94718.53
2022-07-25T19:14:27.381Z,94700.88
2022-07-25T19:16:57.468Z,94716.19
2022-07-25T19:19:25.959Z,94720.34
2022-07-25T19:21:54.486Z,94714.25
2022-07-25T19:24:22.914Z,94720.50
2022-07-25T19:26:50.909Z,94722.88
2022-07-25T19:29:20.985Z,94716.00
2022-07-25T19:31:48.891Z,94725.34
2022-07-25T19:34:16.760Z,94721.69
2022-07-25T19:36:45.975Z,94718.03
2022-07-25T19:39:14.540Z,94716.34
2022-07-25T19:41:46.642Z,94725.09
2022-07-25T19:44:15.275Z,94729.28
2022-07-25T19:46:44.863Z,94734.13
2022-07-25T19:49:13.203Z,94737.25
2022-07-25T19:51:41.404Z,94743.50
2022-07-25T19:54:10.005Z,94748.81
2022-07-25T19:56:38.312Z,94745.72
2022-07-25T19:59:06.540Z,94734.25
2022-07-25T20:01:35.916Z,94744.72
2022-07-25T20:04:09.070Z,94748.34
2022-07-25T20:06:37.370Z,94754.00
2022-07-25T20:09:06.797Z,94764.25
2022-07-25T20:11:34.903Z,94781.22
2022-07-25T20:14:02.751Z,94793.38
2022-07-25T20:16:30.891Z,94805.03
2022-07-25T20:19:00.222Z,94819.13
2022-07-25T20:21:29.612Z,94841.44
2022-07-25T20:23:57.677Z,94839.38
2022-07-25T20:26:25.608Z,94856.53
2022-07-25T20:28:53.806Z,94867.47
2022-07-25T20:31:24.308Z,94870.94
2022-07-25T20:33:52.687Z,94868.44
2022-07-25T20:36:21.232Z,94883.91
2022-07-25T20:38:51.136Z,94874.75
2022-07-25T20:41:19.602Z,94847.06
2022-07-25T20:43:47.485Z,94807.81
2022-07-25T20:46:15.361Z,94801.00
2022-07-25T20:48:43.357Z,94785.16
2022-07-25T20:51:12.924Z,94775.44
2022-07-25T20:53:41.816Z,94790.09
2022-07-25T20:56:11.127Z,94871.44
2022-07-25T20:58:39.663Z,94944.56
2022-07-25T21:01:07.532Z,94928.75
2022-07-25T21:03:36.030Z,94913.09
2022-07-25T21:06:03.908Z,94887.25
2022-07-25T21:08:31.779Z,94894.97
2022-07-25T21:11:00.839Z,94909.53
2022-07-25T21:13:31.574Z,94911.34
2022-07-25T21:16:00.980Z,94923.38
2022-07-25T21:18:28.970Z,94955.06
2022-07-25T21:20:56.838Z,95017.56
2022-07-25T21:23:26.331Z,95064.91
2022-07-25T21:25:54.223Z,95126.03
2022-07-25T21:28:22.115Z,95115.13
2022-07-25T21:30:51.457Z,95119.00
2022-07-25T21:33:19.297Z,95089.97
2022-07-25T21:35:51.807Z,95051.88
2022-07-25T21:38:26.653Z,95026.88
2022-07-25T21:40:56.383Z,95019.34
2022-07-25T21:43:24.255Z,95000.06
2022-07-25T21:45:53.933Z,94968.81
2022-07-25T21:48:43.871Z,94984.69
2022-07-25T21:51:19.211Z,95006.78
2022-07-25T21:53:51.402Z,95020.84
2022-07-25T21:56:19.909Z,95035.88
2022-07-25T21:58:48.063Z,95082.16
2022-07-25T22:01:17.646Z,95116.09
2022-07-25T22:03:45.628Z,95105.16
2022-07-25T22:06:13.603Z,95096.59
2022-07-25T22:08:41.441Z,95095.25
2022-07-25T22:11:16.082Z,95073.53
2022-07-25T22:13:57.914Z,95064.44
2022-07-25T22:16:27.985Z,95077.56
2022-07-25T22:18:57.142Z,95097.16
2022-07-25T22:21:25.121Z,95109.09
2022-07-25T22:23:52.938Z,95128.94
2022-07-25T22:26:20.918Z,95145.09
2022-07-25T22:28:50.638Z,95165.75
2022-07-25T22:31:18.952Z,95153.94
2022-07-25T22:33:48.221Z,95123.22
2022-07-25T22:36:16.044Z,95086.19
2022-07-25T22:38:43.942Z,95049.72
2022-07-25T22:41:12.568Z,95081.94
2022-07-25T22:43:58.773Z,95098.75
2022-07-25T22:46:28.458Z,95103.22
2022-07-25T22:48:58.769Z,95102.38
2022-07-25T22:51:27.455Z,95106.84
2022-07-25T22:53:55.333Z,95083.16
2022-07-25T22:56:23.498Z,95063.84
2022-07-25T22:58:51.334Z,95084.97
2022-07-25T23:01:19.491Z,95092.44
2022-07-25T23:03:49.781Z,95098.28
2022-07-25T23:06:20.689Z,95099.25
2022-07-25T23:08:48.985Z,95109.41
2022-07-25T23:11:17.261Z,95122.38
2022-07-25T23:13:45.294Z,95139.84
2022-07-25T23:16:13.366Z,95159.13
2022-07-25T23:18:41.295Z,95160.06
2022-07-25T23:21:09.256Z,95159.81
2022-07-25T23:23:38.513Z,95159.31
2022-07-25T23:26:06.356Z,95169.03
2022-07-25T23:28:34.184Z,95132.31
2022-07-25T23:31:02.031Z,95098.88
2022-07-25T23:33:30.110Z,95113.66
2022-07-25T23:35:58.211Z,95115.44
2022-07-25T23:38:26.364Z,95112.00
2022-07-25T23:40:55.616Z,95111.34
2022-07-25T23:43:40.848Z,95115.03
2022-07-25T23:46:11.588Z,95105.91
2022-07-25T23:48:39.572Z,95101.97
2022-07-25T23:51:07.784Z,95100.50
2022-07-25T23:53:36.368Z,95106.72
2022-07-25T23:56:06.126Z,95109.38
2022-07-25T23:58:34.022Z,95109.91
